createdAt,value
2022-10-19T00:00:40.687Z,85.93
2022-10-19T00:01:40.691Z,85.72
2022-10-19T00:02:40.694Z,85.68
2022-10-19T00:03:40.730Z,85.57
2022-10-19T00:04:40.631Z,85.68
2022-10-19T00:05:40.673Z,85.78
2022-10-19T00:06:40.601Z,85.68
2022-10-19T00:07:40.599Z,85.57
2022-10-19T00:08:40.584Z,85.57
2022-10-19T00:09:40.623Z,85.68
2022-10-19T00:10:40.582Z,85.78
2022-10-19T00:11:40.568Z,85.78
2022-10-19T00:12:40.587Z,85.82
2022-10-19T00:13:40.583Z,85.57
2022-10-19T00:14:40.540Z,85.82
2022-10-19T00:15:40.526Z,85.72
2022-10-19T00:16:40.603Z,85.82
2022-10-19T00:17:40.474Z,86.03
2022-10-19T00:18:40.484Z,86.24
2022-10-19T00:19:40.491Z,86.24
2022-10-19T00:20:40.484Z,86.13
2022-10-19T00:21:40.473Z,86.13
2022-10-19T00:22:40.426Z,86.13
2022-10-19T00:23:40.418Z,86.34
2022-10-19T00:24:40.422Z,86.34
2022-10-19T00:25:40.404Z,86.44
2022-10-19T00:26:40.419Z,86.44
2022-10-19T00:27:40.354Z,86.65
2022-10-19T00:28:40.440Z,86.65
2022-10-19T00:29:40.348Z,86.65
2022-10-19T00:30:40.445Z,86.65
2022-10-19T00:31:40.330Z,86.55
2022-10-19T00:32:40.333Z,86.55
2022-10-19T00:33:40.312Z,86.55
2022-10-19T00:34:40.319Z,86.76
2022-10-19T00:35:40.290Z,86.86
2022-10-19T00:36:40.284Z,86.86
2022-10-19T00:37:40.291Z,86.86
2022-10-19T00:38:40.239Z,86.65
2022-10-19T00:39:40.281Z,86.76
2022-10-19T00:40:40.223Z,86.86
2022-10-19T00:41:40.208Z,86.76
2022-10-19T00:42:40.219Z,86.76
2022-10-19T00:43:40.189Z,86.86
2022-10-19T00:44:40.188Z,86.76
2022-10-19T00:45:40.168Z,86.86
2022-10-19T00:46:40.165Z,86.96
2022-10-19T00:47:40.205Z,87.07
2022-10-19T00:48:40.159Z,87.17
2022-10-19T00:49:40.118Z,87.17
2022-10-19T00:50:40.109Z,87.27
2022-10-19T00:51:40.102Z,87.17
2022-10-19T00:52:40.093Z,87.07
2022-10-19T00:53:40.102Z,87.17
2022-10-19T00:54:40.090Z,87.17
2022-10-19T00:55:40.063Z,87.17
2022-10-19T00:56:40.053Z,87.17
2022-10-19T00:57:40.087Z,87.07
2022-10-19T00:58:40.025Z,87.17
2022-10-19T00:59:40.036Z,87.17
2022-10-19T01:00:40.113Z,87.17
2022-10-19T01:01:39.999Z,87.32
2022-10-19T01:02:39.973Z,87.21
2022-10-19T01:03:39.960Z,87.21
2022-10-19T01:04:39.993Z,87.32
2022-10-19T01:05:39.957Z,87.32
2022-10-19T01:06:39.988Z,87.21
2022-10-19T01:07:39.924Z,87.11
2022-10-19T01:08:39.901Z,87.01
2022-10-19T01:09:39.927Z,87.11
2022-10-19T01:10:39.931Z,87.11
2022-10-19T01:11:39.884Z,87.01
2022-10-19T01:12:39.860Z,86.90
2022-10-19T01:13:39.884Z,87.01
2022-10-19T01:14:39.869Z,87.01
2022-10-19T01:15:40.019Z,87.01
2022-10-19T01:16:39.849Z,86.90
2022-10-19T01:17:39.814Z,86.86
2022-10-19T01:18:39.819Z,86.86
2022-10-19T01:19:39.806Z,86.86
2022-10-19T01:20:39.785Z,87.01
2022-10-19T01:21:39.764Z,87.21
2022-10-19T01:22:39.751Z,87.21
2022-10-19T01:23:39.762Z,87.32
2022-10-19T01:24:40.724Z,87.42
2022-10-19T01:25:39.730Z,87.52
2022-10-19T01:26:39.722Z,87.42
2022-10-19T01:27:40.365Z,87.42
2022-10-19T01:28:39.721Z,87.32
2022-10-19T01:29:39.728Z,87.32
2022-10-19T01:30:39.665Z,87.11
2022-10-19T01:31:39.655Z,87.01
2022-10-19T01:32:39.665Z,87.11
2022-10-19T01:33:39.649Z,87.11
2022-10-19T01:34:39.617Z,87.21
2022-10-19T01:35:39.636Z,87.21
2022-10-19T01:36:39.607Z,87.11
2022-10-19T01:37:39.603Z,87.21
2022-10-19T01:38:39.587Z,87.11
2022-10-19T01:39:39.573Z,87.01
2022-10-19T01:40:39.559Z,87.01
2022-10-19T01:41:39.528Z,86.80
2022-10-19T01:42:39.523Z,86.59
2022-10-19T01:43:39.575Z,86.49
2022-10-19T01:44:39.495Z,86.49
2022-10-19T01:45:39.495Z,86.38
2022-10-19T01:46:39.489Z,85.93
2022-10-19T01:47:39.488Z,86.03
2022-10-19T01:48:39.474Z,85.82
2022-10-19T01:49:39.477Z,86.07
2022-10-19T01:50:39.427Z,85.96
2022-10-19T01:51:39.446Z,85.86
2022-10-19T01:52:39.419Z,85.75
2022-10-19T01:53:39.418Z,85.96
2022-10-19T01:54:39.410Z,85.86
2022-10-19T01:55:39.425Z,85.86
2022-10-19T01:56:39.405Z,85.96
2022-10-19T01:57:39.351Z,86.07
2022-10-19T01:58:39.380Z,85.96
2022-10-19T01:59:39.335Z,86.17
2022-10-19T02:00:39.433Z,86.32
2022-10-19T02:01:39.327Z,86.52
2022-10-19T02:02:39.367Z,86.32
2022-10-19T02:03:39.295Z,86.07
2022-10-19T02:04:39.300Z,86.17
2022-10-19T02:05:39.271Z,86.27
2022-10-19T02:06:39.257Z,85.86
2022-10-19T02:07:39.257Z,85.75
2022-10-19T02:08:40.048Z,85.86
2022-10-19T02:09:39.233Z,85.55
2022-10-19T02:10:39.226Z,85.55
2022-10-19T02:11:39.247Z,85.75
2022-10-19T02:12:39.199Z,85.75
2022-10-19T02:13:41.160Z,85.44
2022-10-19T02:14:39.181Z,85.30
2022-10-19T02:15:39.151Z,85.20
2022-10-19T02:16:39.215Z,85.20
2022-10-19T02:17:39.138Z,85.51
2022-10-19T02:18:39.158Z,85.20
2022-10-19T02:19:39.136Z,85.30
2022-10-19T02:20:39.122Z,85.10
2022-10-19T02:21:39.117Z,84.89
2022-10-19T02:22:39.076Z,84.89
2022-10-19T02:23:39.111Z,84.99
2022-10-19T02:24:39.078Z,84.99
2022-10-19T02:25:39.063Z,84.68
2022-10-19T02:26:39.046Z,84.68
2022-10-19T02:27:39.031Z,84.78
2022-10-19T02:28:39.051Z,84.89
2022-10-19T02:29:39.010Z,84.58
2022-10-19T02:30:39.016Z,84.68
2022-10-19T02:31:38.989Z,84.68
2022-10-19T02:32:39.027Z,84.78
2022-10-19T02:33:38.959Z,84.78
2022-10-19T02:34:38.947Z,84.58
2022-10-19T02:35:38.923Z,84.68
2022-10-19T02:36:38.941Z,84.68
2022-10-19T02:37:38.931Z,84.78
2022-10-19T02:38:38.932Z,84.89
2022-10-19T02:39:38.902Z,84.89
2022-10-19T02:40:38.879Z,84.99
2022-10-19T02:41:38.902Z,84.58
2022-10-19T02:42:38.853Z,84.37
2022-10-19T02:43:38.842Z,84.27
2022-10-19T02:44:38.843Z,84.27
2022-10-19T02:45:38.838Z,84.47
2022-10-19T02:47:38.804Z,84.47
2022-10-19T02:48:38.796Z,84.68
2022-10-19T02:49:38.796Z,84.37
2022-10-19T02:50:38.778Z,84.37
2022-10-19T02:51:38.774Z,84.37
2022-10-19T02:52:38.756Z,84.16
2022-10-19T02:53:38.724Z,84.27
2022-10-19T02:54:38.716Z,84.27
2022-10-19T02:55:38.706Z,84.16
2022-10-19T02:56:38.689Z,84.05
2022-10-19T02:57:38.699Z,84.16
2022-10-19T02:58:38.665Z,84.16
2022-10-19T02:59:38.711Z,84.27
2022-10-19T03:00:38.732Z,84.47
2022-10-19T03:01:38.654Z,84.27
2022-10-19T03:02:38.630Z,84.27
2022-10-19T03:03:38.619Z,84.22
2022-10-19T03:04:38.693Z,84.12
2022-10-19T03:05:38.621Z,84.01
2022-10-19T03:06:38.584Z,84.22
2022-10-19T03:07:38.595Z,84.53
2022-10-19T03:08:38.607Z,84.33
2022-10-19T03:09:38.567Z,84.33
2022-10-19T03:10:38.535Z,84.33
2022-10-19T03:11:38.522Z,84.33
2022-10-19T03:12:38.557Z,84.43
2022-10-19T03:13:38.589Z,84.53
2022-10-19T03:14:38.536Z,84.43
2022-10-19T03:15:38.485Z,84.22
2022-10-19T03:16:38.479Z,84.43
2022-10-19T03:17:38.488Z,84.53
2022-10-19T03:18:38.447Z,84.22
2022-10-19T03:19:38.467Z,84.22
2022-10-19T03:20:38.477Z,84.33
2022-10-19T03:21:38.452Z,84.01
2022-10-19T03:22:38.400Z,84.01
2022-10-19T03:23:38.410Z,83.81
2022-10-19T03:24:38.378Z,83.91
2022-10-19T03:25:38.405Z,84.22
2022-10-19T03:26:38.378Z,84.22
2022-10-19T03:27:38.373Z,84.12
2022-10-19T03:28:38.374Z,84.33
2022-10-19T03:29:38.375Z,84.33
2022-10-19T03:30:38.310Z,84.43
2022-10-19T03:31:38.342Z,84.33
2022-10-19T03:32:38.313Z,84.33
2022-10-19T03:33:38.279Z,84.43
2022-10-19T03:34:38.273Z,84.43
2022-10-19T03:35:38.323Z,84.74
2022-10-19T03:36:38.340Z,84.84
2022-10-19T03:37:38.249Z,84.84
2022-10-19T03:38:38.221Z,84.74
2022-10-19T03:39:38.240Z,84.84
2022-10-19T03:40:38.205Z,84.95
2022-10-19T03:41:38.275Z,85.30
2022-10-19T03:42:38.179Z,84.74
2022-10-19T03:43:38.222Z,84.84
2022-10-19T03:44:38.159Z,84.53
2022-10-19T03:45:38.136Z,84.53
2022-10-19T03:46:38.125Z,84.64
2022-10-19T03:47:38.172Z,84.84
2022-10-19T03:48:38.146Z,85.05
2022-10-19T03:49:40.242Z,84.95
2022-10-19T03:50:38.128Z,84.84
2022-10-19T03:51:38.071Z,84.74
2022-10-19T03:52:38.094Z,84.84
2022-10-19T03:53:38.110Z,85.05
2022-10-19T03:54:38.034Z,85.16
2022-10-19T03:55:38.031Z,85.16
2022-10-19T03:56:38.080Z,85.26
2022-10-19T03:57:38.014Z,85.16
2022-10-19T03:58:38.096Z,85.05
2022-10-19T03:59:38.003Z,85.16
2022-10-19T04:00:38.002Z,84.95
2022-10-19T04:01:37.959Z,85.05
2022-10-19T04:02:37.986Z,84.84
2022-10-19T04:03:37.963Z,84.95
2022-10-19T04:04:37.962Z,84.74
2022-10-19T04:05:37.948Z,84.74
2022-10-19T04:06:37.915Z,84.74
2022-10-19T04:07:37.917Z,84.64
2022-10-19T04:08:37.923Z,84.64
2022-10-19T04:09:37.897Z,84.74
2022-10-19T04:10:37.886Z,84.95
2022-10-19T04:11:37.862Z,84.84
2022-10-19T04:12:38.484Z,84.84
2022-10-19T04:13:37.850Z,84.95
2022-10-19T04:14:52.383Z,84.74
2022-10-19T04:15:37.851Z,84.95
2022-10-19T04:16:37.804Z,85.05
2022-10-19T04:17:37.814Z,84.95
2022-10-19T04:18:37.787Z,84.95
2022-10-19T04:19:37.775Z,85.05
2022-10-19T04:20:37.769Z,84.95
2022-10-19T04:21:37.762Z,85.05
2022-10-19T04:22:37.747Z,84.95
2022-10-19T04:23:37.744Z,84.74
2022-10-19T04:24:37.706Z,84.74
2022-10-19T04:25:37.813Z,84.84
2022-10-19T04:26:37.699Z,84.95
2022-10-19T04:27:37.702Z,84.64
2022-10-19T04:28:37.696Z,84.43
2022-10-19T04:29:37.650Z,84.22
2022-10-19T04:30:37.629Z,83.91
2022-10-19T04:31:37.647Z,83.81
2022-10-19T04:32:37.657Z,83.91
2022-10-19T04:33:37.663Z,83.91
2022-10-19T04:34:39.923Z,84.01
2022-10-19T04:35:37.585Z,83.91
2022-10-19T04:36:37.593Z,84.12
2022-10-19T04:37:37.580Z,83.46
2022-10-19T04:38:37.549Z,83.46
2022-10-19T04:39:37.551Z,83.36
2022-10-19T04:40:37.542Z,83.36
2022-10-19T04:41:37.517Z,83.56
2022-10-19T04:42:37.542Z,83.56
2022-10-19T04:43:37.500Z,83.70
2022-10-19T04:44:37.497Z,83.36
2022-10-19T04:45:37.464Z,83.46
2022-10-19T04:46:37.518Z,83.46
2022-10-19T04:47:37.465Z,83.67
2022-10-19T04:48:37.442Z,83.67
2022-10-19T04:49:37.428Z,83.77
2022-10-19T04:50:38.482Z,84.08
2022-10-19T04:51:37.405Z,84.29
2022-10-19T04:52:37.429Z,84.60
2022-10-19T04:53:37.413Z,84.91
2022-10-19T04:54:37.393Z,84.70
2022-10-19T04:55:37.373Z,84.50
2022-10-19T04:56:37.355Z,84.70
2022-10-19T04:57:37.338Z,84.70
2022-10-19T04:58:37.332Z,84.70
2022-10-19T04:59:37.329Z,84.50
2022-10-19T05:00:37.333Z,84.29
2022-10-19T05:01:37.289Z,84.50
2022-10-19T05:02:37.288Z,84.39
2022-10-19T05:03:37.270Z,84.19
2022-10-19T05:04:38.286Z,84.08
2022-10-19T05:05:37.240Z,83.77
2022-10-19T05:06:37.240Z,83.98
2022-10-19T05:07:37.260Z,84.19
2022-10-19T05:08:37.217Z,84.19
2022-10-19T05:09:37.226Z,83.98
2022-10-19T05:10:37.223Z,84.19
2022-10-19T05:11:37.179Z,84.29
2022-10-19T05:12:37.190Z,84.60
2022-10-19T05:13:37.157Z,84.70
2022-10-19T05:14:39.092Z,84.60
2022-10-19T05:15:37.168Z,84.70
2022-10-19T05:16:37.142Z,84.91
2022-10-19T05:17:37.378Z,84.70
2022-10-19T05:18:37.123Z,84.70
2022-10-19T05:19:37.094Z,85.02
2022-10-19T05:20:37.153Z,84.60
2022-10-19T05:21:37.061Z,84.50
2022-10-19T05:22:37.053Z,84.19
2022-10-19T05:23:37.046Z,84.50
2022-10-19T05:24:37.028Z,84.29
2022-10-19T05:25:37.039Z,84.29
2022-10-19T05:26:37.037Z,84.29
2022-10-19T05:27:37.251Z,84.15
2022-10-19T05:28:37.083Z,84.25
2022-10-19T05:29:38.068Z,84.56
2022-10-19T05:30:36.974Z,84.56
2022-10-19T05:31:37.712Z,84.67
2022-10-19T05:32:36.956Z,84.56
2022-10-19T05:33:36.966Z,84.56
2022-10-19T05:34:36.919Z,84.46
2022-10-19T05:35:36.901Z,84.36
2022-10-19T05:36:37.056Z,84.25
2022-10-19T05:37:37.123Z,84.15
2022-10-19T05:38:36.901Z,84.25
2022-10-19T05:39:36.875Z,84.46
2022-10-19T05:40:36.870Z,84.46
2022-10-19T05:41:36.864Z,84.88
2022-10-19T05:42:36.860Z,85.08
2022-10-19T05:43:36.833Z,85.50
2022-10-19T05:45:36.809Z,86.57
2022-10-19T05:46:36.786Z,86.68
2022-10-19T05:47:37.207Z,86.47
2022-10-19T05:48:36.772Z,86.57
2022-10-19T05:49:36.800Z,86.26
2022-10-19T05:50:36.817Z,86.43
2022-10-19T05:51:36.737Z,86.22
2022-10-19T05:52:36.770Z,86.43
2022-10-19T05:54:36.687Z,86.43
2022-10-19T05:55:36.707Z,86.43
2022-10-19T05:56:36.697Z,86.64
2022-10-19T05:57:37.178Z,86.85
2022-10-19T05:58:36.647Z,86.95
2022-10-19T05:59:36.654Z,87.37
2022-10-19T06:00:36.634Z,87.78
2022-10-19T06:01:37.575Z,88.30
2022-10-19T06:02:36.621Z,87.92
2022-10-19T06:03:36.609Z,88.13
2022-10-19T06:04:36.595Z,88.54
2022-10-19T06:05:36.622Z,88.65
2022-10-19T06:06:36.603Z,88.96
2022-10-19T06:07:36.979Z,89.06
2022-10-19T06:08:36.558Z,89.27
2022-10-19T06:09:36.551Z,89.27
2022-10-19T06:10:36.537Z,88.96
2022-10-19T06:11:36.546Z,88.85
2022-10-19T06:12:36.503Z,88.96
2022-10-19T06:13:36.478Z,89.27
2022-10-19T06:14:36.615Z,89.27
2022-10-19T06:15:36.487Z,89.58
2022-10-19T06:16:36.464Z,89.69
2022-10-19T06:17:36.754Z,89.48
2022-10-19T06:18:36.430Z,89.48
2022-10-19T06:19:36.419Z,89.17
2022-10-19T06:20:36.415Z,89.27
2022-10-19T06:21:37.264Z,89.48
2022-10-19T06:22:36.426Z,89.37
2022-10-19T06:23:36.456Z,89.06
2022-10-19T06:24:36.378Z,89.06
2022-10-19T06:25:36.347Z,89.06
2022-10-19T06:26:36.374Z,89.37
2022-10-19T06:27:36.734Z,89.17
2022-10-19T06:28:36.347Z,88.85
2022-10-19T06:29:36.738Z,88.96
2022-10-19T06:30:36.308Z,89.06
2022-10-19T06:31:36.326Z,88.75
2022-10-19T06:32:36.275Z,88.75
2022-10-19T06:33:36.368Z,88.96
2022-10-19T06:34:36.264Z,88.75
2022-10-19T06:35:36.248Z,89.06
2022-10-19T06:36:36.220Z,88.85
2022-10-19T06:37:36.554Z,88.65
2022-10-19T06:38:36.226Z,88.85
2022-10-19T06:39:36.226Z,88.75
2022-10-19T06:40:36.203Z,89.06
2022-10-19T06:41:36.181Z,89.06
2022-10-19T06:42:36.156Z,89.17
2022-10-19T06:43:36.174Z,89.06
2022-10-19T06:44:36.173Z,89.17
2022-10-19T06:45:36.206Z,89.48
2022-10-19T06:46:36.143Z,89.06
2022-10-19T06:47:36.549Z,88.96
2022-10-19T06:48:37.638Z,89.06
2022-10-19T06:49:36.080Z,89.27
2022-10-19T06:50:36.084Z,89.06
2022-10-19T06:51:36.066Z,89.06
2022-10-19T06:52:36.326Z,89.06
2022-10-19T06:53:36.050Z,89.17
2022-10-19T06:54:36.033Z,89.17
2022-10-19T06:55:36.016Z,89.27
2022-10-19T06:56:36.093Z,89.17
2022-10-19T06:57:36.408Z,88.96
2022-10-19T06:58:35.998Z,88.85
2022-10-19T06:59:35.964Z,88.96
2022-10-19T07:00:36.015Z,88.85
2022-10-19T07:01:36.015Z,89.06
2022-10-19T07:02:36.530Z,88.96
2022-10-19T07:03:35.919Z,88.85
2022-10-19T07:04:35.928Z,88.96
2022-10-19T07:05:35.901Z,88.75
2022-10-19T07:06:35.893Z,88.75
2022-10-19T07:07:36.268Z,88.85
2022-10-19T07:08:35.896Z,88.75
2022-10-19T07:09:35.899Z,88.61
2022-10-19T07:10:35.850Z,88.51
2022-10-19T07:11:35.845Z,88.61
2022-10-19T07:12:35.827Z,88.61
2022-10-19T07:13:35.811Z,88.40
2022-10-19T07:14:35.796Z,88.30
2022-10-19T07:15:35.809Z,88.20
2022-10-19T07:16:35.774Z,88.30
2022-10-19T07:17:36.293Z,88.09
2022-10-19T07:18:35.758Z,88.20
2022-10-19T07:19:35.743Z,88.30
2022-10-19T07:20:35.748Z,88.09
2022-10-19T07:21:35.721Z,87.88
2022-10-19T07:22:35.710Z,87.78
2022-10-19T07:23:35.690Z,87.68
2022-10-19T07:24:35.698Z,87.57
2022-10-19T07:25:35.705Z,87.68
2022-10-19T07:26:35.677Z,87.88
2022-10-19T07:27:37.734Z,87.68
2022-10-19T07:28:35.679Z,87.78
2022-10-19T07:29:35.619Z,87.57
2022-10-19T07:30:35.604Z,87.68
2022-10-19T07:31:35.693Z,87.68
2022-10-19T07:32:35.605Z,87.88
2022-10-19T07:33:35.606Z,87.53
2022-10-19T07:34:35.570Z,87.32
2022-10-19T07:35:35.584Z,87.74
2022-10-19T07:36:35.557Z,87.53
2022-10-19T07:37:35.943Z,87.53
2022-10-19T07:38:35.524Z,87.74
2022-10-19T07:39:35.530Z,87.63
2022-10-19T07:40:35.522Z,87.74
2022-10-19T07:41:35.501Z,87.53
2022-10-19T07:42:35.540Z,87.43
2022-10-19T07:43:35.497Z,87.63
2022-10-19T07:44:35.456Z,87.63
2022-10-19T07:45:35.444Z,87.53
2022-10-19T07:46:35.444Z,87.63
2022-10-19T07:47:35.766Z,87.84
2022-10-19T07:48:35.424Z,87.84
2022-10-19T07:49:35.415Z,87.84
2022-10-19T07:50:35.411Z,87.53
2022-10-19T07:51:35.407Z,87.63
2022-10-19T07:52:36.987Z,87.53
2022-10-19T07:53:35.354Z,87.74
2022-10-19T07:54:35.420Z,87.84
2022-10-19T07:55:35.329Z,87.43
2022-10-19T07:56:35.373Z,87.01
2022-10-19T07:57:35.330Z,86.91
2022-10-19T07:58:35.316Z,87.12
2022-10-19T07:59:36.723Z,87.01
2022-10-19T08:00:35.498Z,87.43
2022-10-19T08:01:35.278Z,87.22
2022-10-19T08:02:54.687Z,87.32
2022-10-19T08:05:35.300Z,87.38
2022-10-19T08:06:35.216Z,87.59
2022-10-19T08:07:36.084Z,86.97
2022-10-19T08:08:36.174Z,86.70
2022-10-19T08:10:35.264Z,86.80
2022-10-19T08:11:35.208Z,86.70
2022-10-19T08:12:35.460Z,86.70
2022-10-19T08:13:35.128Z,86.60
2022-10-19T08:14:35.202Z,86.60
2022-10-19T08:15:35.140Z,86.70
2022-10-19T08:16:35.097Z,86.91
2022-10-19T08:17:35.101Z,86.91
2022-10-19T08:18:35.105Z,86.60
2022-10-19T08:19:35.091Z,86.70
2022-10-19T08:20:35.075Z,86.60
2022-10-19T08:21:35.044Z,86.66
2022-10-19T08:22:35.406Z,86.97
2022-10-19T08:23:35.026Z,86.66
2022-10-19T08:24:35.060Z,86.87
2022-10-19T08:25:35.008Z,86.55
2022-10-19T08:26:34.978Z,86.45
2022-10-19T08:28:34.975Z,86.25
2022-10-19T08:29:34.978Z,86.55
2022-10-19T08:30:34.955Z,86.15
2022-10-19T08:31:34.978Z,86.15
2022-10-19T08:32:35.379Z,86.25
2022-10-19T08:33:34.994Z,86.35
2022-10-19T08:34:34.935Z,86.15
2022-10-19T08:35:34.889Z,86.15
2022-10-19T08:36:34.928Z,86.15
2022-10-19T08:37:46.016Z,85.83
2022-10-19T08:38:34.859Z,86.04
2022-10-19T08:39:34.890Z,86.04
2022-10-19T08:40:34.846Z,85.83
2022-10-19T08:41:34.861Z,85.73
2022-10-19T08:42:35.031Z,86.04
2022-10-19T08:43:34.815Z,85.94
2022-10-19T08:44:34.788Z,85.52
2022-10-19T08:45:34.838Z,85.63
2022-10-19T08:46:34.800Z,85.27
2022-10-19T08:47:35.084Z,85.27
2022-10-19T08:48:34.786Z,85.48
2022-10-19T08:49:34.763Z,85.17
2022-10-19T08:50:34.760Z,85.17
2022-10-19T08:51:34.708Z,85.06
2022-10-19T08:52:34.908Z,85.06
2022-10-19T08:53:34.702Z,85.06
2022-10-19T08:54:34.734Z,85.17
2022-10-19T08:55:34.700Z,85.48
2022-10-19T08:56:51.688Z,85.34
2022-10-19T08:57:34.988Z,85.03
2022-10-19T08:58:34.641Z,84.75
2022-10-19T08:59:34.617Z,85.06
2022-10-19T09:00:34.714Z,84.92
2022-10-19T09:01:37.544Z,84.82
2022-10-19T09:02:34.895Z,84.82
2022-10-19T09:03:54.506Z,84.92
2022-10-19T09:04:34.927Z,85.13
2022-10-19T09:05:34.640Z,84.61
2022-10-19T09:06:34.533Z,84.20
2022-10-19T09:07:34.566Z,84.41
2022-10-19T09:08:34.629Z,84.82
2022-10-19T09:09:34.620Z,84.51
2022-10-19T09:10:34.527Z,84.51
2022-10-19T09:11:34.579Z,84.72
2022-10-19T09:12:34.852Z,84.51
2022-10-19T09:13:41.380Z,83.89
2022-10-19T09:14:34.480Z,84.41
2022-10-19T09:15:34.477Z,84.20
2022-10-19T09:16:34.524Z,84.20
2022-10-19T09:17:34.469Z,83.99
2022-10-19T09:18:34.421Z,83.99
2022-10-19T09:19:34.431Z,83.78
2022-10-19T09:20:34.538Z,83.68
2022-10-19T09:21:43.288Z,83.89
2022-10-19T09:22:34.771Z,83.89
2022-10-19T09:23:34.493Z,83.89
2022-10-19T09:24:34.362Z,83.95
2022-10-19T09:25:34.437Z,84.06
2022-10-19T09:26:34.299Z,83.95
2022-10-19T09:27:34.354Z,83.85
2022-10-19T09:28:38.999Z,83.33
2022-10-19T09:29:34.341Z,83.44
2022-10-19T09:30:34.273Z,83.54
2022-10-19T09:31:38.251Z,83.44
2022-10-19T09:32:34.473Z,83.23
2022-10-19T09:33:34.237Z,83.23
2022-10-19T09:34:34.330Z,83.12
2022-10-19T09:35:34.227Z,82.81
2022-10-19T09:36:50.224Z,83.12
2022-10-19T09:37:34.275Z,82.67
2022-10-19T09:38:34.242Z,82.46
2022-10-19T09:39:34.767Z,82.67
2022-10-19T09:40:34.232Z,82.67
2022-10-19T09:41:34.861Z,82.57
2022-10-19T09:42:34.713Z,82.46
2022-10-19T09:43:34.309Z,82.15
2022-10-19T09:44:34.935Z,81.95
2022-10-19T09:45:34.453Z,82.05
2022-10-19T09:46:36.189Z,82.22
2022-10-19T09:47:34.403Z,81.91
2022-10-19T09:48:34.123Z,81.70
2022-10-19T09:49:34.217Z,81.81
2022-10-19T09:50:34.098Z,81.49
2022-10-19T09:51:34.148Z,81.77
2022-10-19T09:52:34.053Z,81.77
2022-10-19T09:53:34.037Z,81.46
2022-10-19T09:54:34.006Z,81.15
2022-10-19T09:55:34.203Z,80.53
2022-10-19T09:56:34.009Z,80.63
2022-10-19T09:57:34.288Z,80.43
2022-10-19T09:58:34.003Z,80.32
2022-10-19T09:59:33.945Z,80.63
2022-10-19T10:00:34.029Z,80.39
2022-10-19T10:01:41.601Z,80.43
2022-10-19T10:02:34.430Z,80.63
2022-10-19T10:03:33.902Z,80.11
2022-10-19T10:04:33.889Z,80.22
2022-10-19T10:05:33.891Z,79.80
2022-10-19T10:06:33.889Z,79.70
2022-10-19T10:07:34.290Z,80.01
2022-10-19T10:08:33.935Z,80.43
2022-10-19T10:09:33.872Z,80.53
2022-10-19T10:10:33.837Z,80.01
2022-10-19T10:11:33.815Z,80.11
2022-10-19T10:12:34.214Z,79.87
2022-10-19T10:13:33.825Z,79.80
2022-10-19T10:14:33.871Z,79.46
2022-10-19T10:15:33.804Z,79.66
2022-10-19T10:16:33.831Z,79.66
2022-10-19T10:17:33.777Z,79.87
2022-10-19T10:18:34.336Z,79.94
2022-10-19T10:19:33.746Z,79.11
2022-10-19T10:20:33.734Z,78.91
2022-10-19T10:21:33.733Z,79.01
2022-10-19T10:22:34.040Z,78.08
2022-10-19T10:23:33.677Z,78.70
2022-10-19T10:24:33.679Z,78.39
2022-10-19T10:25:33.659Z,77.25
2022-10-19T10:26:33.644Z,77.25
2022-10-19T10:27:33.929Z,77.36
2022-10-19T10:28:33.654Z,77.04
2022-10-19T10:29:33.621Z,77.25
2022-10-19T10:30:33.673Z,77.25
2022-10-19T10:31:33.590Z,77.36
2022-10-19T10:32:33.858Z,77.36
2022-10-19T10:33:44.252Z,76.84
2022-10-19T10:35:33.612Z,76.94
2022-10-19T10:36:33.565Z,77.11
2022-10-19T10:37:33.833Z,77.63
2022-10-19T10:38:33.527Z,77.84
2022-10-19T10:39:33.574Z,77.84
2022-10-19T10:40:33.504Z,76.73
2022-10-19T10:41:33.482Z,76.94
2022-10-19T10:42:33.764Z,76.84
2022-10-19T10:43:33.663Z,77.04
2022-10-19T10:44:33.473Z,76.53
2022-10-19T10:45:33.453Z,76.70
2022-10-19T10:46:33.435Z,76.70
2022-10-19T10:47:33.773Z,76.81
2022-10-19T10:48:33.456Z,76.81
2022-10-19T10:49:33.568Z,76.70
2022-10-19T10:50:33.408Z,76.39
2022-10-19T10:51:33.382Z,76.08
2022-10-19T10:52:33.853Z,76.18
2022-10-19T10:53:33.415Z,76.60
2022-10-19T10:54:33.330Z,77.11
2022-10-19T10:55:33.347Z,77.01
2022-10-19T10:56:33.371Z,77.32
2022-10-19T10:57:33.359Z,77.80
2022-10-19T10:58:33.401Z,77.94
2022-10-19T10:59:33.342Z,78.25
2022-10-19T11:00:33.275Z,78.66
2022-10-19T11:01:33.349Z,78.87
2022-10-19T11:02:33.321Z,78.05
2022-10-19T11:03:33.257Z,78.77
2022-10-19T11:04:33.324Z,77.84
2022-10-19T11:05:33.215Z,78.25
2022-10-19T11:06:33.391Z,77.63
2022-10-19T11:07:33.456Z,77.94
2022-10-19T11:08:33.295Z,78.25
2022-10-19T11:09:33.170Z,78.25
2022-10-19T11:10:33.848Z,77.73
2022-10-19T11:11:33.124Z,77.63
2022-10-19T11:12:35.191Z,77.63
2022-10-19T11:13:33.118Z,77.42
2022-10-19T11:14:33.198Z,77.39
2022-10-19T11:15:33.316Z,76.56
2022-10-19T11:16:33.066Z,76.25
2022-10-19T11:17:33.446Z,76.39
2022-10-19T11:18:33.114Z,76.50
2022-10-19T11:19:33.186Z,76.81
2022-10-19T11:20:33.111Z,76.29
2022-10-19T11:21:33.075Z,75.46
2022-10-19T11:22:33.244Z,74.63
2022-10-19T11:23:33.886Z,75.26
2022-10-19T11:24:32.996Z,75.77
2022-10-19T11:25:33.037Z,75.87
2022-10-19T11:26:33.052Z,76.39
2022-10-19T11:27:33.352Z,76.50
2022-10-19T11:28:33.152Z,76.29
2022-10-19T11:29:33.052Z,76.18
2022-10-19T11:30:33.268Z,76.29
2022-10-19T11:31:33.028Z,76.81
2022-10-19T11:32:33.520Z,76.08
2022-10-19T11:33:32.993Z,76.18
2022-10-19T11:34:32.966Z,76.18
2022-10-19T11:35:32.987Z,75.36
2022-10-19T11:36:33.223Z,75.36
2022-10-19T11:37:33.178Z,74.26
2022-10-19T11:38:32.830Z,74.77
2022-10-19T11:39:33.113Z,74.88
2022-10-19T11:40:32.821Z,75.29
2022-10-19T11:41:33.180Z,75.60
2022-10-19T11:42:32.839Z,75.70
2022-10-19T11:43:32.802Z,75.98
2022-10-19T11:44:32.802Z,75.36
2022-10-19T11:45:32.762Z,75.15
2022-10-19T11:46:35.988Z,75.32
2022-10-19T11:47:33.380Z,74.71
2022-10-19T11:48:32.709Z,75.57
2022-10-19T11:49:32.790Z,75.26
2022-10-19T11:50:32.881Z,75.87
2022-10-19T11:51:32.761Z,75.57
2022-10-19T11:52:33.252Z,75.26
2022-10-19T11:53:32.839Z,75.67
2022-10-19T11:54:32.671Z,75.77
2022-10-19T11:55:32.790Z,75.15
2022-10-19T11:56:44.758Z,75.77
2022-10-19T11:57:33.034Z,75.36
2022-10-19T11:58:35.053Z,75.29
2022-10-19T11:59:32.586Z,75.19
2022-10-19T12:00:40.241Z,75.60
2022-10-19T12:01:32.630Z,75.81
2022-10-19T12:02:33.013Z,76.01
2022-10-19T12:03:32.598Z,76.53
2022-10-19T12:04:32.645Z,76.64
2022-10-19T12:05:32.556Z,77.25
2022-10-19T12:06:32.527Z,78.28
2022-10-19T12:07:32.568Z,79.01
2022-10-19T12:08:32.582Z,78.74
2022-10-19T12:09:32.492Z,80.29
2022-10-19T12:10:32.621Z,81.11
2022-10-19T12:11:32.473Z,82.39
2022-10-19T12:12:32.877Z,82.70
2022-10-19T12:13:32.447Z,82.08
2022-10-19T12:14:32.520Z,82.50
2022-10-19T12:15:32.458Z,82.50
2022-10-19T12:16:33.460Z,82.18
2022-10-19T12:17:32.895Z,81.98
2022-10-19T12:18:32.392Z,81.35
2022-10-19T12:19:32.373Z,80.63
2022-10-19T12:20:32.430Z,81.15
2022-10-19T12:21:33.846Z,80.53
2022-10-19T12:22:32.440Z,80.22
2022-10-19T12:23:32.380Z,81.11
2022-10-19T12:24:32.349Z,80.90
2022-10-19T12:25:32.565Z,80.60
2022-10-19T12:26:32.323Z,80.18
2022-10-19T12:27:33.152Z,79.77
2022-10-19T12:28:32.324Z,79.56
2022-10-19T12:29:32.259Z,79.66
2022-10-19T12:30:32.335Z,79.56
2022-10-19T12:31:32.344Z,78.22
2022-10-19T12:32:32.262Z,79.15
2022-10-19T12:33:32.253Z,77.91
2022-10-19T12:34:32.204Z,77.29
2022-10-19T12:35:32.301Z,77.70
2022-10-19T12:36:32.327Z,76.98
2022-10-19T12:37:32.405Z,77.29
2022-10-19T12:38:32.991Z,77.91
2022-10-19T12:39:32.452Z,77.50
2022-10-19T12:40:32.184Z,76.98
2022-10-19T12:41:32.287Z,76.46
2022-10-19T12:48:28.240Z,76.46
2022-10-19T12:49:30.077Z,76.98
2022-10-19T12:50:29.216Z,77.19
2022-10-19T12:51:29.178Z,77.60
2022-10-19T12:52:29.144Z,77.50
2022-10-19T12:53:29.139Z,78.32
2022-10-19T12:54:29.134Z,78.63
2022-10-19T12:55:29.124Z,78.42
2022-10-19T12:56:29.119Z,79.05
2022-10-19T12:57:29.113Z,78.88
2022-10-19T12:58:29.073Z,79.19
2022-10-19T12:59:29.067Z,79.19
2022-10-19T13:00:29.097Z,78.98
2022-10-19T13:01:29.084Z,78.98
2022-10-19T13:02:29.134Z,79.49
2022-10-19T13:03:29.799Z,79.60
2022-10-19T13:04:29.024Z,79.60
2022-10-19T13:05:29.060Z,79.60
2022-10-19T13:06:28.994Z,79.70